首页
METAR-TAF:

METAR-TAF

机场 :

McCall Municipal Airport

McCall, 爱达荷州, 美国

纬度: 44-53-00N, 经度: 116-05-58W, 海拔: 1530米

当前天气观测

该预报发布于1小时和21分钟前的08:51 UTC
静风
温度 1°C
湿度 80%
气压 1018 hPa
能見度: 16.1公里
天空无云

METAR: KMYL 190851Z AUTO 00000KT 10SM CLR 01/M02 A3005 RMK AO2 SLP178 T00111017 50001

时间: 04:12 (10:12 UTC)

预报

该预报发布于4小时和52分钟前的05:20 UTC
预报有效从19日的 06点(UTC)到 20日的 06点(UTC)
风速3节,风向多变
能見度: 10公里
散云层高于10000英尺
从 19日的 1900点(UTC)
风速6节,风向西南
能見度: 10公里
散云层高于25000英尺
从 20日的 0300点(UTC)
风速5节,风向多变
能見度: 10公里
天空无云

TAF: KMYL 190520Z 1906/2006 VRB03KT P6SM SCT100 FM191900 22006KT P6SM SCT250 FM200300 VRB05KT P6SM SKC

超过4000个机场的气象观测和天气预报(METAR&TAF报告)。

可查询的气象台以黄色和红色小点在地图上表示。

将鼠标移到小点上方,可查看气象台名称。

然后点击查看天气观测和预报。

如需切换地图:点击带黑十字的绿色按钮放大地图;点击带横线的绿色按钮缩小地图;或者点击绿色箭头查看邻近地区的地图。


METAR-TAF: